ESNS

Skellefteå Airport

Skellefteå, Sweden
METAR ESNS 230750Z 01009KT 9999 -SN SCT012 OVC021 M13/M15 Q1032
Observed Flight Rules
Feb-23 @ 07:50 UTC (31 minutes ago) Marginal Visual Flight Rules
Wind Visibility Clouds Conditions
10° at 9 knots 10,000+ meters
  • Scattered at 1,200' AGL
  • Overcast at 2,100' AGL
  • Light Snow
Temperatures Readings
Current -13°C / 9°F
Dewpoint -15°C / 5°F
Humidity 85%
Altimeter 30.47" Hg
Pressure 1032 hPa
Elevation 49
METAR ESNS 230750Z 01009KT 9999 -SN SCT012 OVC021 M13/M15 Q1032
Observed Flight Rules
Feb-23 @ 07:50 UTC
(31 minutes ago)
MVFR
Wind Visibility
10° at 9 knots 10,000+ meters
Clouds
  • Scattered at 1,200' AGL
  • Overcast at 2,100' AGL
Conditions
  • Light Snow
Temperature Dewpoint
-13°C / 9°F -15°C / 5°F
Humidity Altimeter Pressure
85% 30.47" Hg 1032 hPa